Time;durP1;ratioP1;P1;durP2;ratioP2;P2;SDS_P1;SDS_P2;PMS_P1;PMS_P2;Temp;Humidity;BMP_temperature;BMP_pressure;BME280_temperature;BME280_humidity;BME280_pressure;Samples;Min_cycle;Max_cycle;Signal;HPM_P1;HPM_P2
2023/03/25 00:00:16;;;;;;;18.95;3.15;;;;;;;;;;5012043;28;20033;-83
2023/03/25 00:02:43;;;;;;;15.02;2.55;;;;;;;;;;5017176;28;20033;-82
2023/03/25 00:05:11;;;;;;;27.70;2.65;;;;;;;;;;5033872;28;20053;-83
2023/03/25 00:07:37;;;;;;;12.15;1.98;;;;;;;;;;5023767;28;20069;-83
2023/03/25 00:10:04;;;;;;;18.58;3.13;;;;;;;;;;5019651;28;20096;-82
2023/03/25 00:12:30;;;;;;;11.25;2.25;;;;;;;;;;5013153;28;20045;-83
2023/03/25 00:14:57;;;;;;;12.93;2.33;;;;;;;;;;5037558;28;20055;-83
2023/03/25 00:17:27;;;;;;;7.90;1.98;;;;;;;;;;5038271;28;20033;-83
2023/03/25 00:20:01;;;;;;;21.00;3.25;;;;;;;;;;5030085;28;20075;-82
2023/03/25 00:22:27;;;;;;;16.73;2.97;;;;;;;;;;5038184;28;20037;-82
2023/03/25 00:24:53;;;;;;;16.13;3.13;;;;;;;;;;5036380;28;20132;-82
2023/03/25 00:27:19;;;;;;;12.43;2.03;;;;;;;;;;5032180;28;20045;-82
2023/03/25 00:29:46;;;;;;;19.45;3.67;;;;;;;;;;5029262;28;20128;-82
2023/03/25 00:32:13;;;;;;;9.57;1.40;;;;;;;;;;5027481;28;20044;-82
2023/03/25 00:34:40;;;;;;;13.35;2.92;;;;;;;;;;5025032;28;20053;-82
2023/03/25 00:37:09;;;;;;;20.70;3.03;;;;;;;;;;5025113;28;20121;-82
2023/03/25 00:39:36;;;;;;;15.93;2.92;;;;;;;;;;5008531;28;20053;-82
2023/03/25 00:42:03;;;;;;;18.95;3.10;;;;;;;;;;5024397;28;20033;-82
2023/03/25 00:44:30;;;;;;;17.08;2.80;;;;;;;;;;5009253;28;20648;-82
2023/03/25 00:46:56;;;;;;;12.18;2.47;;;;;;;;;;5030278;28;21069;-82
2023/03/25 00:49:23;;;;;;;27.08;2.88;;;;;;;;;;5030430;28;20037;-82
2023/03/25 00:51:53;;;;;;;32.50;2.78;;;;;;;;;;5033281;28;20128;-82
2023/03/25 00:54:20;;;;;;;15.25;3.03;;;;;;;;;;5015364;28;20037;-82
2023/03/25 00:56:47;;;;;;;21.55;3.22;;;;;;;;;;5032663;28;20048;-82
2023/03/25 00:59:14;;;;;;;13.27;3.13;;;;;;;;;;5035075;28;20053;-82
2023/03/25 01:01:42;;;;;;;15.55;2.88;;;;;;;;;;5040219;28;20498;-82
2023/03/25 01:04:11;;;;;;;14.73;3.13;;;;;;;;;;5020553;28;20041;-82
2023/03/25 01:06:42;;;;;;;11.98;2.80;;;;;;;;;;5038580;28;20072;-81
2023/03/25 01:09:09;;;;;;;15.77;2.45;;;;;;;;;;5041913;28;20048;-82
2023/03/25 01:11:37;;;;;;;13.20;2.65;;;;;;;;;;5039573;28;20048;-81
2023/03/25 01:14:04;;;;;;;12.60;2.50;;;;;;;;;;5017344;28;20421;-82
2023/03/25 01:16:31;;;;;;;10.93;2.42;;;;;;;;;;5030644;28;22089;-82
2023/03/25 01:18:57;;;;;;;13.20;2.58;;;;;;;;;;5002349;28;20165;-83
2023/03/25 01:21:23;;;;;;;19.45;3.05;;;;;;;;;;5032193;28;20037;-82
2023/03/25 01:23:49;;;;;;;20.23;3.65;;;;;;;;;;5009241;28;20123;-82
2023/03/25 01:26:16;;;;;;;22.55;2.83;;;;;;;;;;5002381;28;20053;-82
2023/03/25 01:28:42;;;;;;;13.70;2.28;;;;;;;;;;5018584;28;20884;-82
2023/03/25 01:31:10;;;;;;;16.45;2.42;;;;;;;;;;5000727;28;20139;-82
2023/03/25 01:33:36;;;;;;;18.33;3.33;;;;;;;;;;5020263;28;20497;-82
2023/03/25 01:36:03;;;;;;;15.00;3.38;;;;;;;;;;5015639;28;20045;-82
2023/03/25 01:38:29;;;;;;;17.52;2.67;;;;;;;;;;5017637;28;20086;-82
2023/03/25 01:40:55;;;;;;;23.75;3.30;;;;;;;;;;4999633;28;20037;-82
2023/03/25 01:43:22;;;;;;;22.48;3.65;;;;;;;;;;5030701;28;20073;-82
2023/03/25 01:45:49;;;;;;;19.13;3.42;;;;;;;;;;5023868;28;20521;-86
2023/03/25 01:48:26;;;;;;;28.20;5.13;;;;;;;;;;5019992;28;20091;-85
2023/03/25 01:50:55;;;;;;;20.55;2.85;;;;;;;;;;5032635;28;20049;-83
2023/03/25 01:53:21;;;;;;;25.90;3.53;;;;;;;;;;5018345;28;20478;-84
2023/03/25 01:55:53;;;;;;;22.73;4.03;;;;;;;;;;5031950;28;20478;-84
2023/03/25 01:58:20;;;;;;;27.80;3.97;;;;;;;;;;5031394;28;20804;-84
2023/03/25 02:00:46;;;;;;;22.55;3.35;;;;;;;;;;5007265;28;20064;-84
2023/03/25 02:03:13;;;;;;;25.42;3.58;;;;;;;;;;5006321;28;20037;-85
2023/03/25 02:05:56;;;;;;;22.40;3.53;;;;;;;;;;5016550;28;20052;-86
2023/03/25 02:08:23;;;;;;;20.50;3.88;;;;;;;;;;5026610;28;20033;-87
2023/03/25 02:10:49;;;;;;;25.20;5.05;;;;;;;;;;5013010;28;20106;-86
2023/03/25 02:13:15;;;;;;;33.47;3.75;;;;;;;;;;5015194;28;20980;-86
2023/03/25 02:15:58;;;;;;;28.40;5.15;;;;;;;;;;5013704;28;20137;-86
2023/03/25 02:18:30;;;;;;;21.38;4.05;;;;;;;;;;5034461;28;20116;-86
2023/03/25 02:21:12;;;;;;;24.95;4.18;;;;;;;;;;5014676;28;20026;-87
2023/03/25 02:23:57;;;;;;;32.03;4.65;;;;;;;;;;5018321;28;20025;-85
2023/03/25 02:26:42;;;;;;;27.13;3.85;;;;;;;;;;5013852;28;20045;-84
2023/03/25 02:29:13;;;;;;;28.55;3.85;;;;;;;;;;5030591;28;20044;-85
2023/03/25 02:31:57;;;;;;;25.08;4.20;;;;;;;;;;5013959;28;20132;-85
2023/03/25 02:34:30;;;;;;;19.52;3.35;;;;;;;;;;5012254;28;20049;-86
2023/03/25 02:37:00;;;;;;;26.30;4.00;;;;;;;;;;5015655;28;20037;-86
2023/03/25 02:39:46;;;;;;;21.42;3.03;;;;;;;;;;5013671;28;20498;-86
2023/03/25 02:42:20;;;;;;;34.63;4.22;;;;;;;;;;5025902;28;20041;-85
2023/03/25 02:44:55;;;;;;;31.65;4.50;;;;;;;;;;5031850;28;20122;-85
2023/03/25 02:47:22;;;;;;;35.90;4.25;;;;;;;;;;5017613;28;20497;-86
2023/03/25 02:50:03;;;;;;;30.17;4.28;;;;;;;;;;5019248;28;20041;-86
2023/03/25 02:52:32;;;;;;;43.05;4.60;;;;;;;;;;5046473;28;20049;-86
2023/03/25 02:55:00;;;;;;;22.55;3.22;;;;;;;;;;5028116;28;20048;-85
2023/03/25 02:57:27;;;;;;;32.63;4.32;;;;;;;;;;5014455;28;20080;-86
2023/03/25 02:59:54;;;;;;;28.98;4.93;;;;;;;;;;5013952;28;20148;-86
2023/03/25 03:02:22;;;;;;;28.02;3.55;;;;;;;;;;5026964;28;20037;-86
2023/03/25 03:04:49;;;;;;;31.33;5.65;;;;;;;;;;5002157;28;20436;-85
2023/03/25 03:07:21;;;;;;;29.90;4.30;;;;;;;;;;5014242;28;20493;-85
2023/03/25 03:09:51;;;;;;;27.98;4.25;;;;;;;;;;5012551;28;20087;-85
2023/03/25 03:12:33;;;;;;;24.48;3.90;;;;;;;;;;5012676;28;20132;-85
2023/03/25 03:15:19;;;;;;;30.98;4.30;;;;;;;;;;5009493;28;20045;-84
2023/03/25 03:18:01;;;;;;;25.48;3.78;;;;;;;;;;5024043;28;20872;-84
2023/03/25 03:20:56;;;;;;;18.13;3.55;;;;;;;;;;5029908;28;20046;-85
2023/03/25 03:23:26;;;;;;;25.92;4.88;;;;;;;;;;5006475;28;20045;-83
2023/03/25 03:26:01;;;;;;;33.10;4.97;;;;;;;;;;5030746;28;20049;-84
2023/03/25 03:28:33;;;;;;;29.27;4.10;;;;;;;;;;5029601;28;20164;-84
2023/03/25 03:31:05;;;;;;;37.35;5.53;;;;;;;;;;5014577;28;20116;-84
2023/03/25 03:34:04;;;;;;;25.60;3.20;;;;;;;;;;5029862;28;20053;-84
2023/03/25 03:36:33;;;;;;;31.20;4.45;;;;;;;;;;5019136;28;20141;-83
2023/03/25 03:39:08;;;;;;;29.10;4.13;;;;;;;;;;5027270;28;20091;-84
2023/03/25 03:41:35;;;;;;;28.88;3.40;;;;;;;;;;5027003;28;20052;-83
2023/03/25 03:44:06;;;;;;;29.90;4.25;;;;;;;;;;5011489;28;20070;-84
2023/03/25 03:46:38;;;;;;;24.60;5.18;;;;;;;;;;5015191;28;20034;-84
2023/03/25 03:49:08;;;;;;;27.55;4.50;;;;;;;;;;5009429;28;20106;-84
2023/03/25 03:51:49;;;;;;;25.52;4.38;;;;;;;;;;5017413;28;20132;-84
2023/03/25 03:54:18;;;;;;;32.00;4.68;;;;;;;;;;5006908;28;20556;-85
2023/03/25 03:56:54;;;;;;;27.08;4.80;;;;;;;;;;5011334;28;20030;-84
2023/03/25 03:59:23;;;;;;;27.55;4.25;;;;;;;;;;5012267;28;20068;-85
2023/03/25 04:01:52;;;;;;;25.75;3.95;;;;;;;;;;5029561;28;20052;-85
2023/03/25 04:04:20;;;;;;;25.20;3.97;;;;;;;;;;5018255;28;20132;-85
2023/03/25 04:06:49;;;;;;;29.13;4.43;;;;;;;;;;5032317;28;20049;-84
2023/03/25 04:09:37;;;;;;;20.73;3.33;;;;;;;;;;5013904;28;20045;-85
2023/03/25 04:12:23;;;;;;;20.90;3.85;;;;;;;;;;5029695;28;20056;-85
2023/03/25 04:14:49;;;;;;;27.58;3.83;;;;;;;;;;5030378;28;20041;-86
2023/03/25 04:17:16;;;;;;;21.83;3.90;;;;;;;;;;5026107;28;20103;-86
2023/03/25 04:19:47;;;;;;;20.38;3.72;;;;;;;;;;5011803;28;20041;-87
2023/03/25 04:22:15;;;;;;;29.15;4.90;;;;;;;;;;5014251;28;20044;-86
2023/03/25 04:24:42;;;;;;;24.55;3.78;;;;;;;;;;5015564;28;20037;-86
2023/03/25 04:27:12;;;;;;;22.65;3.38;;;;;;;;;;5027885;28;20078;-86
2023/03/25 04:29:42;;;;;;;25.75;4.45;;;;;;;;;;5024047;28;20041;-87
2023/03/25 04:32:10;;;;;;;34.72;4.47;;;;;;;;;;5038462;28;20042;-85
2023/03/25 04:34:36;;;;;;;30.77;4.07;;;;;;;;;;5030974;28;20068;-85
2023/03/25 04:37:03;;;;;;;31.05;5.07;;;;;;;;;;5045107;28;20064;-84
2023/03/25 04:39:31;;;;;;;24.50;4.10;;;;;;;;;;5024898;28;20037;-85
2023/03/25 04:42:00;;;;;;;23.55;3.50;;;;;;;;;;5033263;28;20053;-85
2023/03/25 04:44:27;;;;;;;26.15;4.03;;;;;;;;;;5017259;28;20042;-85
2023/03/25 04:46:57;;;;;;;29.90;4.70;;;;;;;;;;5030013;28;20060;-86
2023/03/25 04:49:24;;;;;;;28.92;4.22;;;;;;;;;;5031105;28;20095;-86
2023/03/25 04:51:51;;;;;;;28.52;3.85;;;;;;;;;;5015393;28;20186;-85
2023/03/25 04:54:17;;;;;;;19.67;3.55;;;;;;;;;;5012829;28;20481;-86
2023/03/25 04:56:46;;;;;;;25.95;4.78;;;;;;;;;;5024016;28;20134;-86
2023/03/25 04:59:12;;;;;;;23.65;3.90;;;;;;;;;;5038538;28;20162;-86
2023/03/25 05:01:41;;;;;;;29.73;4.50;;;;;;;;;;5028960;28;20046;-85
2023/03/25 05:04:11;;;;;;;23.35;4.95;;;;;;;;;;5009597;28;20049;-86
2023/03/25 05:06:38;;;;;;;18.48;3.50;;;;;;;;;;5019337;28;21918;-87
2023/03/25 05:09:06;;;;;;;30.98;5.10;;;;;;;;;;5031650;28;20041;-85
2023/03/25 05:11:33;;;;;;;27.88;4.60;;;;;;;;;;5017418;28;20033;-87
2023/03/25 05:13:59;;;;;;;30.42;3.40;;;;;;;;;;5032477;28;20046;-86
2023/03/25 05:16:25;;;;;;;26.73;4.43;;;;;;;;;;5032320;28;20146;-86
2023/03/25 05:18:51;;;;;;;29.60;5.00;;;;;;;;;;5026794;28;20773;-87
2023/03/25 05:21:17;;;;;;;26.33;4.32;;;;;;;;;;5027559;28;20215;-88
2023/03/25 05:23:44;;;;;;;26.27;4.30;;;;;;;;;;5022609;28;20065;-87
2023/03/25 05:26:13;;;;;;;34.75;3.85;;;;;;;;;;5018681;28;20049;-87
2023/03/25 05:28:40;;;;;;;20.10;3.55;;;;;;;;;;5011862;28;20048;-87
2023/03/25 05:31:09;;;;;;;28.55;4.10;;;;;;;;;;5019855;28;21700;-87
2023/03/25 05:33:41;;;;;;;22.52;3.97;;;;;;;;;;5032426;28;20044;-87
2023/03/25 05:36:09;;;;;;;22.80;3.80;;;;;;;;;;5016306;28;20049;-87
2023/03/25 05:38:36;;;;;;;32.97;4.63;;;;;;;;;;5014632;28;20049;-86
2023/03/25 05:41:02;;;;;;;24.88;3.65;;;;;;;;;;5018546;28;20087;-85
2023/03/25 05:43:34;;;;;;;23.42;4.38;;;;;;;;;;5013430;28;20033;-86
2023/03/25 05:46:00;;;;;;;32.35;3.60;;;;;;;;;;5030180;28;20049;-86
2023/03/25 05:48:31;;;;;;;27.90;4.30;;;;;;;;;;5031300;28;21034;-85
2023/03/25 05:50:57;;;;;;;28.70;4.15;;;;;;;;;;5034058;28;20048;-85
2023/03/25 05:53:23;;;;;;;31.52;3.72;;;;;;;;;;5015140;28;20037;-86
2023/03/25 05:55:50;;;;;;;22.30;3.10;;;;;;;;;;5018134;28;20049;-85
2023/03/25 05:58:18;;;;;;;18.80;3.10;;;;;;;;;;5032896;28;20103;-86
2023/03/25 06:00:45;;;;;;;25.42;3.97;;;;;;;;;;5014356;28;20037;-85
2023/03/25 06:03:12;;;;;;;32.17;4.60;;;;;;;;;;5034478;28;20048;-84
2023/03/25 06:05:41;;;;;;;28.65;4.28;;;;;;;;;;5034774;28;20045;-85
2023/03/25 06:08:07;;;;;;;21.98;3.20;;;;;;;;;;5017689;28;20036;-86
2023/03/25 06:10:33;;;;;;;26.00;3.80;;;;;;;;;;5038960;28;20110;-83
2023/03/25 06:12:59;;;;;;;23.45;4.07;;;;;;;;;;5034767;28;20068;-84
2023/03/25 06:15:32;;;;;;;27.10;4.95;;;;;;;;;;5022455;28;20116;-86
2023/03/25 06:17:58;;;;;;;26.63;4.28;;;;;;;;;;5034911;28;20105;-86
2023/03/25 06:20:24;;;;;;;29.23;3.88;;;;;;;;;;5047547;28;20099;-86
2023/03/25 06:22:50;;;;;;;31.98;5.80;;;;;;;;;;5019566;28;20068;-85
2023/03/25 06:25:18;;;;;;;32.75;5.45;;;;;;;;;;5033019;28;20056;-87
2023/03/25 06:27:45;;;;;;;23.83;3.28;;;;;;;;;;5030003;28;21958;-87
2023/03/25 06:30:13;;;;;;;27.00;5.45;;;;;;;;;;5025750;28;20405;-86
2023/03/25 06:32:40;;;;;;;30.52;4.10;;;;;;;;;;5032529;28;20037;-86
2023/03/25 06:35:08;;;;;;;37.58;5.53;;;;;;;;;;5030162;28;20417;-87
2023/03/25 06:37:34;;;;;;;29.85;4.40;;;;;;;;;;5017458;28;20052;-87
2023/03/25 06:40:00;;;;;;;17.48;4.07;;;;;;;;;;5030847;28;20041;-88
2023/03/25 06:42:28;;;;;;;22.60;3.53;;;;;;;;;;5019620;28;20119;-87
2023/03/25 06:44:55;;;;;;;30.08;4.70;;;;;;;;;;5015747;28;20152;-87
2023/03/25 06:47:21;;;;;;;24.95;4.25;;;;;;;;;;5014271;28;20049;-87
2023/03/25 06:49:47;;;;;;;32.72;4.63;;;;;;;;;;5030384;28;20045;-86
2023/03/25 06:52:14;;;;;;;29.90;4.88;;;;;;;;;;5008002;28;20044;-80
2023/03/25 06:54:40;;;;;;;30.25;4.38;;;;;;;;;;5018429;28;20056;-78
2023/03/25 06:57:06;;;;;;;27.77;4.35;;;;;;;;;;5017329;28;21128;-78
2023/03/25 06:59:32;;;;;;;24.98;4.60;;;;;;;;;;5017754;28;20050;-77
2023/03/25 07:01:59;;;;;;;26.45;3.80;;;;;;;;;;5015986;28;20045;-78
2023/03/25 07:04:25;;;;;;;25.95;5.38;;;;;;;;;;5006563;28;20703;-78
2023/03/25 07:06:52;;;;;;;23.67;3.53;;;;;;;;;;5032400;28;20533;-73
2023/03/25 07:09:18;;;;;;;13.82;3.00;;;;;;;;;;5002735;28;20130;-73
2023/03/25 07:11:44;;;;;;;21.63;3.47;;;;;;;;;;5033585;28;20041;-73
2023/03/25 07:14:10;;;;;;;17.60;3.20;;;;;;;;;;5017870;28;21731;-72
2023/03/25 07:16:36;;;;;;;29.02;4.40;;;;;;;;;;5017345;28;20133;-73
2023/03/25 07:19:02;;;;;;;25.63;3.42;;;;;;;;;;5020476;28;20161;-86
2023/03/25 07:21:28;;;;;;;30.08;4.57;;;;;;;;;;5029231;28;20073;-86
2023/03/25 07:23:55;;;;;;;22.10;4.03;;;;;;;;;;5030508;28;20564;-88
2023/03/25 07:26:21;;;;;;;19.55;3.47;;;;;;;;;;5026002;28;20098;-86
2023/03/25 07:28:47;;;;;;;32.58;5.90;;;;;;;;;;5018491;28;20516;-86
2023/03/25 07:31:14;;;;;;;25.88;3.25;;;;;;;;;;5028468;28;20136;-87
2023/03/25 07:33:40;;;;;;;31.20;4.50;;;;;;;;;;5028423;28;20044;-86
2023/03/25 07:36:08;;;;;;;26.73;4.00;;;;;;;;;;5013003;28;20478;-86
2023/03/25 07:38:34;;;;;;;32.80;5.63;;;;;;;;;;5014653;28;20047;-87
2023/03/25 07:41:04;;;;;;;34.80;4.72;;;;;;;;;;5031320;28;20516;-88
2023/03/25 07:43:31;;;;;;;23.27;3.55;;;;;;;;;;5013303;28;20116;-88
2023/03/25 07:45:57;;;;;;;17.38;3.42;;;;;;;;;;5019175;28;20479;-87
2023/03/25 07:48:24;;;;;;;14.75;2.97;;;;;;;;;;5017815;28;20440;-87
2023/03/25 07:50:51;;;;;;;15.30;3.20;;;;;;;;;;5016462;28;20432;-87
2023/03/25 07:53:17;;;;;;;11.50;2.50;;;;;;;;;;5006410;28;20235;-78
2023/03/25 07:55:44;;;;;;;6.80;1.23;;;;;;;;;;5014962;28;20556;-78
2023/03/25 07:58:11;;;;;;;7.43;1.23;;;;;;;;;;5016602;28;20084;-79
2023/03/25 08:00:37;;;;;;;9.93;2.20;;;;;;;;;;5024054;28;20052;-81
2023/03/25 08:03:03;;;;;;;15.32;1.88;;;;;;;;;;5022659;28;20075;-81
2023/03/25 08:05:30;;;;;;;12.60;1.80;;;;;;;;;;4995718;28;20068;-83
2023/03/25 08:07:59;;;;;;;9.85;1.95;;;;;;;;;;5028014;28;20102;-84
2023/03/25 08:10:26;;;;;;;16.33;2.58;;;;;;;;;;5004342;28;20504;-84
2023/03/25 08:12:52;;;;;;;13.98;2.63;;;;;;;;;;5034251;28;20080;-84
2023/03/25 08:15:19;;;;;;;18.83;4.55;;;;;;;;;;5007900;28;20107;-83
2023/03/25 08:17:46;;;;;;;15.98;3.78;;;;;;;;;;5014930;28;20045;-84
2023/03/25 08:20:13;;;;;;;27.75;3.92;;;;;;;;;;5034462;28;20041;-83
2023/03/25 08:22:40;;;;;;;14.70;2.75;;;;;;;;;;5019317;28;20037;-83
2023/03/25 08:25:06;;;;;;;20.35;3.20;;;;;;;;;;5017817;28;20034;-83
2023/03/25 08:27:32;;;;;;;20.77;3.47;;;;;;;;;;5003819;28;20041;-84
2023/03/25 08:29:59;;;;;;;18.08;4.05;;;;;;;;;;5021069;28;20048;-84
2023/03/25 08:32:27;;;;;;;13.98;2.60;;;;;;;;;;5005587;28;20041;-85
2023/03/25 08:34:53;;;;;;;27.65;4.00;;;;;;;;;;5022354;28;20095;-84
2023/03/25 08:37:24;;;;;;;20.00;2.95;;;;;;;;;;5028189;28;20042;-85
2023/03/25 08:39:50;;;;;;;20.45;3.15;;;;;;;;;;5013266;28;20045;-85
2023/03/25 08:42:17;;;;;;;22.73;3.25;;;;;;;;;;5014353;28;20042;-81
2023/03/25 08:44:43;;;;;;;16.73;2.33;;;;;;;;;;5041188;28;20029;-82
2023/03/25 08:47:09;;;;;;;15.13;2.78;;;;;;;;;;5024646;28;20118;-83
2023/03/25 08:49:35;;;;;;;23.70;3.00;;;;;;;;;;5035177;28;20068;-84
2023/03/25 08:52:03;;;;;;;10.02;2.50;;;;;;;;;;5036571;28;20150;-85
2023/03/25 08:54:29;;;;;;;13.90;3.15;;;;;;;;;;5032542;28;20033;-85
2023/03/25 08:56:55;;;;;;;29.02;3.15;;;;;;;;;;5017373;28;20048;-85
2023/03/25 08:59:24;;;;;;;15.25;2.33;;;;;;;;;;5042565;28;20040;-87
2023/03/25 09:01:51;;;;;;;26.05;3.85;;;;;;;;;;5036983;28;20045;-86
2023/03/25 09:04:20;;;;;;;17.58;3.47;;;;;;;;;;5016586;28;20111;-88
2023/03/25 09:06:48;;;;;;;19.63;3.45;;;;;;;;;;5007679;28;20053;-87
2023/03/25 09:09:15;;;;;;;22.02;3.58;;;;;;;;;;5019358;28;20608;-85
2023/03/25 09:11:41;;;;;;;23.85;3.13;;;;;;;;;;5032547;28;20045;-88
2023/03/25 09:14:07;;;;;;;15.45;2.78;;;;;;;;;;5019711;28;20045;-86
2023/03/25 09:16:34;;;;;;;10.60;2.22;;;;;;;;;;5018461;28;22143;-88
2023/03/25 09:19:00;;;;;;;25.40;3.20;;;;;;;;;;5035300;28;20034;-86
2023/03/25 09:21:26;;;;;;;21.92;3.15;;;;;;;;;;5034250;28;20041;-88
2023/03/25 09:23:52;;;;;;;19.58;3.22;;;;;;;;;;5018552;28;20037;-88
2023/03/25 09:26:18;;;;;;;19.00;3.60;;;;;;;;;;5030264;28;20052;-87
2023/03/25 09:28:44;;;;;;;17.67;3.60;;;;;;;;;;5044304;28;20041;-87
2023/03/25 09:31:11;;;;;;;26.80;3.72;;;;;;;;;;5027263;28;20091;-88
2023/03/25 09:33:37;;;;;;;24.48;4.22;;;;;;;;;;5032927;28;20026;-88
2023/03/25 09:36:03;;;;;;;21.75;3.58;;;;;;;;;;5043775;28;20052;-89
2023/03/25 09:38:29;;;;;;;21.25;3.63;;;;;;;;;;5020027;28;20033;-89
2023/03/25 09:40:56;;;;;;;15.60;2.58;;;;;;;;;;5013564;28;20087;-89
2023/03/25 09:43:22;;;;;;;20.30;3.22;;;;;;;;;;5012823;28;20048;-89
2023/03/25 09:45:48;;;;;;;26.02;3.25;;;;;;;;;;5031035;28;20041;-89
2023/03/25 09:48:24;;;;;;;16.13;2.28;;;;;;;;;;5030522;28;20099;-88
2023/03/25 09:50:50;;;;;;;13.60;2.25;;;;;;;;;;5035105;28;20040;-89
2023/03/25 09:53:42;;;;;;;19.45;2.45;;;;;;;;;;5038372;28;20140;-88
2023/03/25 09:56:15;;;;;;;9.80;2.08;;;;;;;;;;5037298;28;20069;-89
2023/03/25 09:58:42;;;;;;;17.50;2.45;;;;;;;;;;5040694;28;20046;-88
2023/03/25 10:01:21;;;;;;;16.08;3.90;;;;;;;;;;5032260;28;20040;-88
2023/03/25 10:04:01;;;;;;;16.90;3.05;;;;;;;;;;5034240;28;20048;-86
2023/03/25 10:06:27;;;;;;;9.13;2.20;;;;;;;;;;5029992;28;20132;-87
2023/03/25 10:09:17;;;;;;;15.10;2.47;;;;;;;;;;5021720;28;20064;-87
2023/03/25 10:11:50;;;;;;;17.08;2.80;;;;;;;;;;5021968;28;20095;-87
2023/03/25 10:14:25;;;;;;;10.10;2.22;;;;;;;;;;5017085;28;20055;-87
2023/03/25 10:16:57;;;;;;;13.32;2.95;;;;;;;;;;5029961;28;20033;-87
2023/03/25 10:19:26;;;;;;;13.50;3.13;;;;;;;;;;5049534;28;20135;-84
2023/03/25 10:21:53;;;;;;;10.27;2.20;;;;;;;;;;5019147;28;20041;-84
2023/03/25 10:24:26;;;;;;;13.23;2.20;;;;;;;;;;5027260;28;20029;-84
2023/03/25 10:26:55;;;;;;;12.10;2.33;;;;;;;;;;5033787;28;20052;-85
2023/03/25 10:29:41;;;;;;;19.13;2.58;;;;;;;;;;5014504;28;20328;-84
2023/03/25 10:32:13;;;;;;;18.17;3.30;;;;;;;;;;5018181;28;20048;-83
2023/03/25 10:34:41;;;;;;;15.32;3.42;;;;;;;;;;5020573;28;20040;-84
2023/03/25 10:37:11;;;;;;;24.55;3.75;;;;;;;;;;5012207;28;20398;-85
2023/03/25 10:39:42;;;;;;;25.60;3.03;;;;;;;;;;5012736;28;20512;-84
2023/03/25 10:42:31;;;;;;;20.55;3.67;;;;;;;;;;5031702;28;20068;-85
2023/03/25 10:44:57;;;;;;;31.08;3.67;;;;;;;;;;5032459;28;20104;-85
2023/03/25 10:47:26;;;;;;;19.45;3.15;;;;;;;;;;5036928;28;20493;-86
2023/03/25 10:49:53;;;;;;;30.17;3.58;;;;;;;;;;5033290;28;20059;-88
2023/03/25 10:52:19;;;;;;;24.10;3.67;;;;;;;;;;5016205;28;20147;-88
2023/03/25 10:54:48;;;;;;;8.55;2.33;;;;;;;;;;5032289;28;20041;-88
2023/03/25 10:57:27;;;;;;;18.50;3.20;;;;;;;;;;5017055;28;20041;-88
2023/03/25 11:00:05;;;;;;;21.13;3.35;;;;;;;;;;5017932;28;20052;-88
2023/03/25 11:02:31;;;;;;;18.75;2.85;;;;;;;;;;5022976;28;20119;-84
2023/03/25 11:04:59;;;;;;;23.15;3.45;;;;;;;;;;5021937;28;20053;-87
2023/03/25 11:07:31;;;;;;;29.25;3.78;;;;;;;;;;5030321;28;20132;-87
2023/03/25 11:10:13;;;;;;;28.88;3.63;;;;;;;;;;5043258;28;20029;-88
2023/03/25 11:12:44;;;;;;;29.02;3.85;;;;;;;;;;5045309;28;20068;-88
2023/03/25 11:15:29;;;;;;;23.02;3.22;;;;;;;;;;5031836;28;20096;-86
2023/03/25 11:17:58;;;;;;;20.00;3.35;;;;;;;;;;5050479;28;20087;-89
2023/03/25 11:20:30;;;;;;;12.57;3.08;;;;;;;;;;5024158;28;20042;-88
2023/03/25 11:23:01;;;;;;;28.17;3.17;;;;;;;;;;5003953;28;20041;-81
2023/03/25 11:25:32;;;;;;;22.65;4.70;;;;;;;;;;5000859;28;20498;-81
2023/03/25 11:27:59;;;;;;;24.58;3.13;;;;;;;;;;5018275;28;20048;-81
2023/03/25 11:30:26;;;;;;;21.65;3.30;;;;;;;;;;5001094;28;20727;-81
2023/03/25 11:32:58;;;;;;;18.20;3.47;;;;;;;;;;5016891;28;20149;-81
2023/03/25 11:35:28;;;;;;;19.08;3.88;;;;;;;;;;5019535;28;20049;-82
2023/03/25 11:37:56;;;;;;;25.65;2.80;;;;;;;;;;5021867;28;20121;-80
2023/03/25 11:40:26;;;;;;;26.73;3.63;;;;;;;;;;5012198;28;20048;-81
2023/03/25 11:42:54;;;;;;;26.13;4.03;;;;;;;;;;5014194;28;20041;-81
2023/03/25 11:45:44;;;;;;;22.80;3.95;;;;;;;;;;5022330;28;20041;-81
2023/03/25 11:48:18;;;;;;;19.45;2.72;;;;;;;;;;5014157;28;20049;-81
2023/03/25 11:50:51;;;;;;;12.35;3.05;;;;;;;;;;5008973;28;20428;-81
2023/03/25 11:53:21;;;;;;;15.68;2.63;;;;;;;;;;5010759;28;20045;-81
2023/03/25 11:55:52;;;;;;;20.45;3.38;;;;;;;;;;5005425;28;20037;-81
2023/03/25 11:58:20;;;;;;;22.58;3.13;;;;;;;;;;5005335;28;20080;-81
2023/03/25 12:00:52;;;;;;;18.85;3.13;;;;;;;;;;5002372;28;20040;-81
2023/03/25 12:03:21;;;;;;;16.17;2.88;;;;;;;;;;5004622;28;20041;-80
2023/03/25 12:06:06;;;;;;;13.43;2.85;;;;;;;;;;5020131;28;20540;-80
2023/03/25 12:08:47;;;;;;;16.45;2.55;;;;;;;;;;5028138;28;20171;-79
2023/03/25 12:11:16;;;;;;;13.45;2.83;;;;;;;;;;5004874;28;21802;-81
2023/03/25 12:13:50;;;;;;;13.25;1.88;;;;;;;;;;5017862;28;20492;-81
2023/03/25 12:16:16;;;;;;;;;;;;;;;;;;5004972;28;20132;-81
2023/03/25 12:18:47;;;;;;;17.33;3.30;;;;;;;;;;5020569;28;19924;-81
2023/03/25 12:21:31;;;;;;;12.98;2.80;;;;;;;;;;5021934;28;20045;-81
2023/03/25 12:24:17;;;;;;;12.48;2.72;;;;;;;;;;5021642;28;20047;-82
2023/03/25 12:26:50;;;;;;;10.05;2.03;;;;;;;;;;5021575;28;20044;-82
2023/03/25 12:29:32;;;;;;;18.40;2.47;;;;;;;;;;5003377;28;20056;-81
2023/03/25 12:32:21;;;;;;;17.23;3.20;;;;;;;;;;5012871;28;20042;-83
2023/03/25 12:35:07;;;;;;;15.02;2.17;;;;;;;;;;5037196;28;20115;-82
2023/03/25 12:37:36;;;;;;;19.23;2.55;;;;;;;;;;5035841;28;20047;-83
2023/03/25 12:40:15;;;;;;;15.98;2.63;;;;;;;;;;5036947;28;20492;-82
2023/03/25 12:43:00;;;;;;;15.63;2.72;;;;;;;;;;5046917;28;20326;-83
2023/03/25 12:45:36;;;;;;;10.88;2.13;;;;;;;;;;5038701;28;20028;-83
2023/03/25 12:48:28;;;;;;;9.90;2.22;;;;;;;;;;5037999;28;20041;-83
2023/03/25 12:51:01;;;;;;;14.32;2.22;;;;;;;;;;5016556;28;20397;-83
2023/03/25 12:53:47;;;;;;;13.73;2.60;;;;;;;;;;5024921;28;20048;-80
2023/03/25 12:56:16;;;;;;;18.15;2.95;;;;;;;;;;5037365;28;20056;-82
2023/03/25 12:59:01;;;;;;;15.52;3.13;;;;;;;;;;5045631;28;20410;-81
2023/03/25 13:01:46;;;;;;;18.38;2.72;;;;;;;;;;5018882;28;20036;-81
2023/03/25 13:04:12;;;;;;;13.45;2.65;;;;;;;;;;5018830;28;20054;-79
2023/03/25 13:06:51;;;;;;;17.23;2.50;;;;;;;;;;5022423;28;20045;-81
2023/03/25 13:09:23;;;;;;;10.68;2.53;;;;;;;;;;5043476;28;20156;-82
2023/03/25 13:11:52;;;;;;;10.35;2.45;;;;;;;;;;5028236;28;20045;-81
2023/03/25 13:14:27;;;;;;;10.65;2.50;;;;;;;;;;5023247;28;20400;-81
2023/03/25 13:16:55;;;;;;;15.00;2.80;;;;;;;;;;5019753;28;20157;-81
2023/03/25 13:19:26;;;;;;;14.55;2.38;;;;;;;;;;5041593;28;20130;-81
2023/03/25 13:21:55;;;;;;;12.02;2.22;;;;;;;;;;5041597;28;20044;-81
2023/03/25 13:24:24;;;;;;;10.50;2.22;;;;;;;;;;5054060;28;20037;-80
2023/03/25 13:26:52;;;;;;;14.80;2.53;;;;;;;;;;5036052;28;20533;-80
2023/03/25 13:29:21;;;;;;;11.23;2.25;;;;;;;;;;5035046;28;20063;-80
2023/03/25 13:31:48;;;;;;;11.88;2.53;;;;;;;;;;5021859;28;20033;-80
2023/03/25 13:34:18;;;;;;;11.10;3.08;;;;;;;;;;5039547;28;20037;-80
2023/03/25 13:36:47;;;;;;;12.95;2.55;;;;;;;;;;5035590;28;20048;-80
2023/03/25 13:39:18;;;;;;;13.00;1.95;;;;;;;;;;5026340;28;20060;-80
2023/03/25 13:41:47;;;;;;;17.88;2.95;;;;;;;;;;5015588;28;20060;-80
2023/03/25 13:44:13;;;;;;;4.35;1.17;;;;;;;;;;5016992;28;20033;-80
2023/03/25 13:46:46;;;;;;;8.63;2.00;;;;;;;;;;5031694;28;20037;-81
2023/03/25 13:49:35;;;;;;;13.75;2.13;;;;;;;;;;5032456;28;20048;-81
2023/03/25 13:52:02;;;;;;;7.38;2.10;;;;;;;;;;5029177;28;20366;-81
2023/03/25 13:54:28;;;;;;;9.50;1.83;;;;;;;;;;5004436;28;20044;-82
2023/03/25 13:57:09;;;;;;;9.27;1.83;;;;;;;;;;5033498;28;20049;-81
2023/03/25 13:59:45;;;;;;;18.20;2.80;;;;;;;;;;5015989;28;20041;-82
2023/03/25 14:02:11;;;;;;;8.90;1.83;;;;;;;;;;5031284;28;20040;-82
2023/03/25 14:04:37;;;;;;;12.32;1.90;;;;;;;;;;5023232;28;21417;-82
2023/03/25 14:07:08;;;;;;;5.15;1.85;;;;;;;;;;5027552;28;20063;-83
2023/03/25 14:09:37;;;;;;;9.73;1.98;;;;;;;;;;5014107;28;20127;-82
2023/03/25 14:12:15;;;;;;;12.45;2.00;;;;;;;;;;5016380;28;20049;-82
2023/03/25 14:14:45;;;;;;;12.10;2.10;;;;;;;;;;5014664;28;20056;-82
2023/03/25 14:17:11;;;;;;;7.10;1.90;;;;;;;;;;5031605;28;20489;-82
2023/03/25 14:19:39;;;;;;;4.63;1.58;;;;;;;;;;5007934;28;20434;-82
2023/03/25 14:22:20;;;;;;;7.78;1.77;;;;;;;;;;5016113;28;20136;-81
2023/03/25 14:24:48;;;;;;;5.22;1.60;;;;;;;;;;5034875;28;20044;-82
2023/03/25 14:27:17;;;;;;;10.27;1.52;;;;;;;;;;5035744;28;20041;-83
2023/03/25 14:29:53;;;;;;;4.57;1.45;;;;;;;;;;5028196;28;20489;-84
2023/03/25 14:32:19;;;;;;;5.38;1.15;;;;;;;;;;5034928;28;20049;-83
2023/03/25 14:34:48;;;;;;;6.05;1.83;;;;;;;;;;5036729;28;20037;-83
2023/03/25 14:37:27;;;;;;;11.10;2.20;;;;;;;;;;5050823;28;20096;-83
2023/03/25 14:39:56;;;;;;;9.65;1.80;;;;;;;;;;5032122;28;20439;-84
2023/03/25 14:42:28;;;;;;;9.73;2.17;;;;;;;;;;5026840;28;20041;-83
2023/03/25 14:45:15;;;;;;;13.32;2.63;;;;;;;;;;5035270;28;20114;-84
2023/03/25 14:47:59;;;;;;;13.10;3.05;;;;;;;;;;5025347;28;20037;-84